Time;durP1;ratioP1;P1;durP2;ratioP2;P2;SDS_P1;SDS_P2;PMS_P1;PMS_P2;Temp;Humidity;BMP_temperature;BMP_pressure;BME280_temperature;BME280_humidity;BME280_pressure;Samples;Min_cycle;Max_cycle;Signal;HPM_P1;HPM_P2
2023/03/12 00:01:42;;;;;;;;;;;4.10;99.90;;;;;;5058808;28;19909;-92
2023/03/12 00:04:07;;;;;;;;;;;4.10;99.90;;;;;;5058048;28;20003;-92
2023/03/12 00:06:33;;;;;;;;;;;4.00;99.90;;;;;;5075081;28;19905;-93
2023/03/12 00:09:02;;;;;;;;;;;4.10;99.90;;;;;;5059063;28;19908;-94
2023/03/12 00:11:28;;;;;;;;;;;4.00;99.90;;;;;;5058091;28;19909;-94
2023/03/12 00:13:55;;;;;;;;;;;4.00;99.90;;;;;;5066050;28;19905;-91
2023/03/12 00:16:21;;;;;;;;;;;4.00;99.90;;;;;;5059528;28;19968;-92
2023/03/12 00:18:50;;;;;;;;;;;4.00;99.90;;;;;;5060164;28;19905;-93
2023/03/12 00:21:16;;;;;;;;;;;4.00;99.90;;;;;;5059715;28;19962;-92
2023/03/12 00:23:42;;;;;;;;;;;4.00;99.90;;;;;;5059449;28;19892;-94
2023/03/12 00:26:11;;;;;;;;;;;4.00;99.90;;;;;;5075846;28;19923;-92
2023/03/12 00:28:37;;;;;;;;;;;4.00;99.90;;;;;;5053123;28;19904;-91
2023/03/12 00:31:12;;;;;;;;;;;4.00;99.90;;;;;;5060926;28;19912;-94
2023/03/12 00:33:37;;;;;;;;;;;4.00;99.90;;;;;;5059464;28;19932;-90
2023/03/12 00:36:03;;;;;;;;;;;3.90;99.90;;;;;;5042325;28;19951;-93
2023/03/12 00:38:29;;;;;;;;;;;4.00;99.90;;;;;;5057788;28;19905;-89
2023/03/12 00:40:54;;;;;;;;;;;4.00;99.90;;;;;;5057825;28;19905;-93
2023/03/12 00:43:20;;;;;;;;;;;4.00;99.90;;;;;;5056581;28;19916;-93
2023/03/12 00:45:45;;;;;;;;;;;4.00;99.90;;;;;;5091082;28;19911;-91
2023/03/12 00:48:14;;;;;;;;;;;4.00;99.90;;;;;;5058385;28;20411;-93
2023/03/12 00:50:42;;;;;;;;;;;4.00;99.90;;;;;;5057224;28;19909;-93
2023/03/12 00:53:07;;;;;;;;;;;4.00;99.90;;;;;;5057983;28;20372;-94
2023/03/12 00:55:34;;;;;;;;;;;3.90;99.90;;;;;;5091730;28;19905;-93
2023/03/12 00:57:59;;;;;;;;;;;4.00;99.90;;;;;;5041071;28;19905;-91
2023/03/12 01:00:25;;;;;;;;;;;4.00;99.90;;;;;;5057137;28;19923;-92
2023/03/12 01:02:50;;;;;;;;;;;4.00;99.90;;;;;;5040614;28;19920;-91
2023/03/12 01:05:16;;;;;;;;;;;3.90;99.90;;;;;;5090783;28;19908;-93
2023/03/12 01:07:44;;;;;;;;;;;3.90;99.90;;;;;;5057089;28;19905;-93
2023/03/12 01:10:12;;;;;;;;;;;3.90;99.90;;;;;;5056932;28;19969;-93
2023/03/12 01:12:37;;;;;;;;;;;3.90;99.90;;;;;;5040340;28;19931;-93
2023/03/12 01:15:03;;;;;;;;;;;3.90;99.90;;;;;;5056564;28;19904;-92
2023/03/12 01:17:29;;;;;;;;;;;3.80;99.90;;;;;;5056937;28;19909;-94
2023/03/12 01:19:57;;;;;;;;;;;3.80;99.90;;;;;;5056617;28;19968;-93
2023/03/12 01:22:25;;;;;;;;;;;3.80;99.90;;;;;;5040484;28;19913;-93
2023/03/12 01:24:53;;;;;;;;;;;3.70;99.90;;;;;;5056772;28;19908;-92
2023/03/12 01:27:24;;;;;;;;;;;3.70;99.90;;;;;;5056595;28;19939;-92
2023/03/12 01:29:49;;;;;;;;;;;3.60;99.90;;;;;;5023803;28;19912;-94
2023/03/12 01:32:17;;;;;;;;;;;3.60;99.90;;;;;;5039975;28;20253;-95
2023/03/12 01:34:46;;;;;;;;;;;3.60;99.90;;;;;;5056407;28;19927;-93
2023/03/12 01:37:11;;;;;;;;;;;3.60;99.90;;;;;;5039226;28;19912;-93
2023/03/12 01:39:37;;;;;;;;;;;3.60;99.90;;;;;;5056229;28;19905;-92
2023/03/12 01:42:03;;;;;;;;;;;3.60;99.90;;;;;;5040069;28;19908;-94
2023/03/12 01:44:28;;;;;;;;;;;3.60;99.90;;;;;;5057215;28;19912;-94
2023/03/12 01:46:54;;;;;;;;;;;3.60;99.90;;;;;;5039402;28;19909;-94
2023/03/12 01:49:24;;;;;;;;;;;3.60;99.90;;;;;;5056519;28;19915;-93
2023/03/12 01:51:53;;;;;;;;;;;3.60;99.90;;;;;;5042682;28;19973;-93
2023/03/12 01:54:21;;;;;;;;;;;3.60;99.90;;;;;;5055654;28;19908;-94
2023/03/12 01:56:48;;;;;;;;;;;3.60;99.90;;;;;;5056696;28;19905;-93
2023/03/12 01:59:20;;;;;;;;;;;3.60;99.90;;;;;;5039966;28;19916;-93
2023/03/12 02:01:46;;;;;;;;;;;3.60;99.90;;;;;;5039825;28;19947;-93
2023/03/12 02:04:12;;;;;;;;;;;3.60;99.90;;;;;;5059883;28;20318;-94
2023/03/12 02:06:42;;;;;;;;;;;3.60;99.90;;;;;;5043240;28;19905;-93
2023/03/12 02:09:08;;;;;;;;;;;3.60;99.90;;;;;;5038653;28;19935;-92
2023/03/12 02:11:34;;;;;;;;;;;3.60;99.90;;;;;;5056796;28;19905;-92
2023/03/12 02:14:00;;;;;;;;;;;3.60;99.90;;;;;;5041122;28;20292;-94
2023/03/12 02:16:26;;;;;;;;;;;3.60;99.90;;;;;;5038395;28;19905;-92
2023/03/12 02:18:56;;;;;;;;;;;3.60;99.90;;;;;;5071822;28;19952;-92
2023/03/12 02:21:23;;;;;;;;;;;3.60;99.90;;;;;;5038435;28;19909;-92
2023/03/12 02:24:01;;;;;;;;;;;3.70;99.90;;;;;;5038543;28;19919;-92
2023/03/12 02:26:30;;;;;;;;;;;3.60;99.90;;;;;;5038852;28;20370;-92
2023/03/12 02:29:01;;;;;;;;;;;3.60;99.90;;;;;;5055751;28;19911;-92
2023/03/12 02:31:32;;;;;;;;;;;3.70;99.90;;;;;;5023606;28;19931;-93
2023/03/12 02:33:59;;;;;;;;;;;3.60;99.90;;;;;;5056624;28;20357;-93
2023/03/12 02:36:25;;;;;;;;;;;3.60;99.90;;;;;;5090551;28;19911;-93
2023/03/12 02:38:54;;;;;;;;;;;3.60;99.90;;;;;;5040041;28;19963;-92
2023/03/12 02:41:20;;;;;;;;;;;3.60;99.90;;;;;;5054968;28;19944;-93
2023/03/12 02:43:57;;;;;;;;;;;3.60;99.90;;;;;;5054584;28;20348;-92
2023/03/12 02:46:22;;;;;;;;;;;3.60;99.90;;;;;;5054839;28;19912;-93
2023/03/12 02:48:48;;;;;;;;;;;3.60;99.90;;;;;;5037983;28;19913;-92
2023/03/12 02:51:21;;;;;;;;;;;3.60;99.90;;;;;;5055130;28;19976;-94
2023/03/12 02:53:53;;;;;;;;;;;3.60;99.90;;;;;;5055277;28;19913;-92
2023/03/12 02:56:20;;;;;;;;;;;3.60;99.90;;;;;;5088512;28;20366;-91
2023/03/12 02:58:45;;;;;;;;;;;3.60;99.90;;;;;;5021252;28;20003;-94
2023/03/12 03:01:11;;;;;;;;;;;3.60;99.90;;;;;;5038136;28;21811;-94
2023/03/12 03:03:39;;;;;;;;;;;3.60;99.90;;;;;;5055034;28;19908;-92
2023/03/12 03:06:07;;;;;;;;;;;3.60;99.90;;;;;;5057142;28;19905;-91
2023/03/12 03:08:32;;;;;;;;;;;3.60;99.90;;;;;;5045382;28;20336;-91
2023/03/12 03:10:59;;;;;;;;;;;3.70;99.90;;;;;;5078028;28;19909;-92
2023/03/12 03:13:25;;;;;;;;;;;3.60;99.90;;;;;;5095125;28;19909;-92
2023/03/12 03:15:50;;;;;;;;;;;3.70;99.90;;;;;;5061584;28;20303;-91
2023/03/12 03:18:16;;;;;;;;;;;3.70;99.90;;;;;;5061314;28;19904;-93
2023/03/12 03:20:43;;;;;;;;;;;3.70;99.90;;;;;;5061105;28;19940;-93
2023/03/12 03:23:11;;;;;;;;;;;3.80;99.90;;;;;;5060715;28;19919;-92
2023/03/12 03:25:44;;;;;;;;;;;3.80;99.90;;;;;;5062163;28;19944;-92
2023/03/12 03:28:13;;;;;;;;;;;3.70;99.90;;;;;;5078356;28;19909;-92
2023/03/12 03:30:41;;;;;;;;;;;3.70;99.90;;;;;;5083139;28;19901;-94
2023/03/12 03:33:06;;;;;;;;;;;3.70;99.90;;;;;;5083812;28;19893;-93
2023/03/12 03:35:33;;;;;;;;;;;3.70;99.90;;;;;;5097710;28;19959;-93
2023/03/12 03:37:58;;;;;;;;;;;3.60;99.90;;;;;;5064938;28;19915;-91
2023/03/12 03:40:24;;;;;;;;;;;3.50;99.90;;;;;;5079007;28;19908;-92
2023/03/12 03:42:49;;;;;;;;;;;3.50;99.90;;;;;;5048892;28;19928;-93
2023/03/12 03:45:16;;;;;;;;;;;3.40;99.90;;;;;;5046301;28;19977;-93
2023/03/12 03:47:42;;;;;;;;;;;3.50;99.90;;;;;;5062791;28;20000;-91
2023/03/12 03:50:10;;;;;;;;;;;3.50;99.90;;;;;;5095188;28;20002;-93
2023/03/12 03:52:39;;;;;;;;;;;3.50;99.90;;;;;;5061492;28;19912;-92
2023/03/12 03:55:05;;;;;;;;;;;3.50;99.90;;;;;;5044977;28;19927;-92
2023/03/12 03:57:30;;;;;;;;;;;3.50;99.90;;;;;;5078702;28;19909;-93
2023/03/12 03:59:59;;;;;;;;;;;3.50;99.90;;;;;;5044813;28;19917;-93
2023/03/12 04:02:27;;;;;;;;;;;3.40;99.90;;;;;;5061115;28;19958;-92
2023/03/12 04:04:58;;;;;;;;;;;3.40;99.90;;;;;;5044324;28;19912;-92
2023/03/12 04:07:27;;;;;;;;;;;3.50;99.90;;;;;;5062096;28;19912;-92
2023/03/12 04:09:53;;;;;;;;;;;3.40;99.90;;;;;;5061061;28;19908;-92
2023/03/12 04:12:19;;;;;;;;;;;3.50;99.90;;;;;;5044353;28;19936;-93
2023/03/12 04:14:47;;;;;;;;;;;3.50;99.90;;;;;;5043423;28;20344;-92
2023/03/12 04:17:20;;;;;;;;;;;3.50;99.90;;;;;;5059308;28;20272;-92
2023/03/12 04:19:51;;;;;;;;;;;3.50;99.90;;;;;;5058216;28;19974;-92
2023/03/12 04:22:16;;;;;;;;;;;3.60;99.90;;;;;;5057670;28;19999;-93
2023/03/12 04:24:44;;;;;;;;;;;3.50;99.90;;;;;;5057175;28;20392;-94
2023/03/12 04:27:12;;;;;;;;;;;3.50;99.90;;;;;;5041290;28;19944;-92
2023/03/12 04:29:39;;;;;;;;;;;3.50;99.90;;;;;;5091490;28;19924;-91
2023/03/12 04:32:10;;;;;;;;;;;3.50;99.90;;;;;;5057365;28;19908;-92
2023/03/12 04:34:38;;;;;;;;;;;3.50;99.90;;;;;;5040535;28;19908;-94
2023/03/12 04:37:13;;;;;;;;;;;;;;;;;;;;;
2023/03/12 04:39:40;;;;;;;;;;;3.60;99.90;;;;;;5058437;28;19911;-93
2023/03/12 04:42:08;;;;;;;;;;;3.60;99.90;;;;;;5058053;28;19908;-90
2023/03/12 04:44:37;;;;;;;;;;;3.60;99.90;;;;;;5059390;28;19908;-91
2023/03/12 04:47:03;;;;;;;;;;;3.60;99.90;;;;;;5043364;28;19959;-90
2023/03/12 04:49:34;;;;;;;;;;;3.60;99.90;;;;;;5059957;28;19979;-92
2023/03/12 04:52:25;;;;;;;;;;;3.60;99.90;;;;;;5060124;28;19994;-93
2023/03/12 04:54:51;;;;;;;;;;;3.60;99.90;;;;;;5044905;28;19909;-94
2023/03/12 04:57:17;;;;;;;;;;;3.60;99.90;;;;;;5043069;28;19905;-93
2023/03/12 04:59:43;;;;;;;;;;;3.60;99.90;;;;;;5055693;28;20371;-92
2023/03/12 05:02:09;;;;;;;;;;;3.60;99.90;;;;;;5057017;28;19939;-92
2023/03/12 05:04:34;;;;;;;;;;;3.50;99.90;;;;;;5057776;28;19908;-93
2023/03/12 05:07:00;;;;;;;;;;;3.60;99.90;;;;;;5056798;28;19912;-92
2023/03/12 05:09:26;;;;;;;;;;;3.60;99.90;;;;;;5059790;28;19904;-92
2023/03/12 05:12:01;;;;;;;;;;;3.60;99.90;;;;;;5058352;28;19968;-92
2023/03/12 05:14:40;;;;;;;;;;;3.60;99.90;;;;;;5090838;28;20409;-93
2023/03/12 05:17:06;;;;;;;;;;;3.60;99.90;;;;;;5058930;28;20371;-93
2023/03/12 05:19:31;;;;;;;;;;;3.60;99.90;;;;;;5058945;28;19904;-91
2023/03/12 05:21:57;;;;;;;;;;;3.70;99.90;;;;;;5056865;28;19909;-92
2023/03/12 05:24:23;;;;;;;;;;;3.70;99.90;;;;;;5056961;28;19909;-92
2023/03/12 05:26:50;;;;;;;;;;;3.70;99.90;;;;;;5039481;28;19909;-95
2023/03/12 05:29:16;;;;;;;;;;;3.70;99.90;;;;;;5039684;28;20360;-92
2023/03/12 05:31:42;;;;;;;;;;;3.70;99.90;;;;;;5090470;28;19968;-93
2023/03/12 05:34:09;;;;;;;;;;;3.70;99.90;;;;;;5041380;28;19958;-93
2023/03/12 05:36:37;;;;;;;;;;;3.70;99.90;;;;;;5040069;28;19909;-93
2023/03/12 05:39:13;;;;;;;;;;;;;;;;;;;;;
2023/03/12 05:41:39;;;;;;;;;;;3.70;99.90;;;;;;5056711;28;19919;-94
2023/03/12 05:44:08;;;;;;;;;;;3.70;99.90;;;;;;5040543;28;20371;-91
2023/03/12 05:46:43;;;;;;;;;;;3.70;99.90;;;;;;5057043;28;19927;-94
2023/03/12 05:49:08;;;;;;;;;;;3.70;99.90;;;;;;5056343;28;19959;-92
2023/03/12 05:51:37;;;;;;;;;;;3.70;99.90;;;;;;5024073;28;20288;-92
2023/03/12 05:54:10;;;;;;;;;;;3.70;99.90;;;;;;5057179;28;19908;-93
2023/03/12 05:56:36;;;;;;;;;;;3.70;99.90;;;;;;5022611;28;19908;-92
2023/03/12 05:59:04;;;;;;;;;;;3.70;99.90;;;;;;5055189;28;20371;-93
2023/03/12 06:01:30;;;;;;;;;;;3.80;99.90;;;;;;5038927;28;20328;-92
2023/03/12 06:03:56;;;;;;;;;;;3.80;99.90;;;;;;5055621;28;19919;-92
2023/03/12 06:06:24;;;;;;;;;;;3.80;99.90;;;;;;5054873;28;19962;-92
2023/03/12 06:08:52;;;;;;;;;;;3.80;99.90;;;;;;5055199;28;19909;-93
2023/03/12 06:11:25;;;;;;;;;;;3.70;99.90;;;;;;5055309;28;19911;-91
2023/03/12 06:13:51;;;;;;;;;;;3.70;99.90;;;;;;5055948;28;19955;-93
2023/03/12 06:16:19;;;;;;;;;;;3.70;99.90;;;;;;5057237;28;19904;-94
2023/03/12 06:18:47;;;;;;;;;;;3.70;99.90;;;;;;5055809;28;19901;-93
2023/03/12 06:21:23;;;;;;;;;;;3.70;99.90;;;;;;5055502;28;19904;-92
2023/03/12 06:23:54;;;;;;;;;;;3.70;99.90;;;;;;5038402;28;20336;-94
2023/03/12 06:26:22;;;;;;;;;;;3.70;99.90;;;;;;5056268;28;19946;-93
2023/03/12 06:28:54;;;;;;;;;;;3.70;99.90;;;;;;5038421;28;20013;-92
2023/03/12 06:31:22;;;;;;;;;;;3.70;99.90;;;;;;5038487;28;19911;-92
2023/03/12 06:33:48;;;;;;;;;;;3.70;99.90;;;;;;5038565;28;20268;-94
2023/03/12 06:36:16;;;;;;;;;;;3.70;99.90;;;;;;5038598;28;19905;-93
2023/03/12 06:38:59;;;;;;;;;;;3.70;99.90;;;;;;5055458;28;19904;-92
2023/03/12 06:41:27;;;;;;;;;;;3.60;99.90;;;;;;5072743;28;19900;-92
2023/03/12 06:44:00;;;;;;;;;;;3.60;99.90;;;;;;5075715;28;19897;-95
2023/03/12 06:46:26;;;;;;;;;;;3.60;99.90;;;;;;5076241;28;19980;-93
2023/03/12 06:48:52;;;;;;;;;;;3.60;99.90;;;;;;5074584;28;19912;-95
2023/03/12 06:51:19;;;;;;;;;;;3.60;99.90;;;;;;5040907;28;19916;-94
2023/03/12 06:53:55;;;;;;;;;;;3.60;99.90;;;;;;5052918;28;19905;-93
2023/03/12 06:56:21;;;;;;;;;;;3.60;99.90;;;;;;5058700;28;19904;-93
2023/03/12 06:58:49;;;;;;;;;;;3.60;99.90;;;;;;5055883;28;20322;-95
2023/03/12 07:01:16;;;;;;;;;;;3.60;99.90;;;;;;5038448;28;19909;-93
2023/03/12 07:03:52;;;;;;;;;;;3.50;99.90;;;;;;5038693;28;19947;-91
2023/03/12 07:06:22;;;;;;;;;;;3.60;99.90;;;;;;5037934;28;19909;-93
2023/03/12 07:08:50;;;;;;;;;;;3.60;99.90;;;;;;5038397;28;19905;-93
2023/03/12 07:11:19;;;;;;;;;;;3.60;99.90;;;;;;5037880;28;20411;-94
2023/03/12 07:13:53;;;;;;;;;;;3.60;99.90;;;;;;5038615;28;19909;-95
2023/03/12 07:16:21;;;;;;;;;;;3.60;99.90;;;;;;5040057;28;19952;-95
2023/03/12 07:18:51;;;;;;;;;;;3.60;99.90;;;;;;5038391;28;19954;-93
2023/03/12 07:21:31;;;;;;;;;;;;;;;;;;;;;
2023/03/12 07:24:02;;;;;;;;;;;3.70;99.90;;;;;;5055982;28;19915;-92
2023/03/12 07:26:28;;;;;;;;;;;3.70;99.90;;;;;;5037691;28;19905;-93
2023/03/12 07:28:56;;;;;;;;;;;3.70;99.90;;;;;;5021532;28;19913;-93
2023/03/12 07:31:27;;;;;;;;;;;3.70;99.90;;;;;;5021779;28;20370;-94
2023/03/12 07:33:53;;;;;;;;;;;3.80;99.90;;;;;;5021848;28;19928;-90
2023/03/12 07:36:18;;;;;;;;;;;3.80;99.90;;;;;;5037873;28;20008;-93
2023/03/12 07:38:44;;;;;;;;;;;3.80;99.90;;;;;;5037174;28;19911;-93
2023/03/12 07:41:12;;;;;;;;;;;3.80;99.90;;;;;;5037413;28;20379;-92
2023/03/12 07:43:42;;;;;;;;;;;3.80;99.90;;;;;;5037867;28;19915;-92
2023/03/12 07:46:08;;;;;;;;;;;3.80;99.90;;;;;;5038791;28;19951;-89
2023/03/12 07:48:38;;;;;;;;;;;3.80;99.90;;;;;;5037378;28;19905;-94
2023/03/12 07:51:07;;;;;;;;;;;3.80;99.90;;;;;;5021787;28;19975;-94
2023/03/12 07:53:35;;;;;;;;;;;3.80;99.90;;;;;;5039381;28;19952;-92
2023/03/12 07:56:01;;;;;;;;;;;3.80;99.90;;;;;;5041687;28;20356;-94
2023/03/12 07:58:26;;;;;;;;;;;3.80;99.90;;;;;;5041678;28;19954;-94
2023/03/12 08:00:57;;;;;;;;;;;3.90;99.90;;;;;;5059302;28;19917;-94
2023/03/12 08:03:28;;;;;;;;;;;3.80;99.90;;;;;;5041443;28;19909;-94
2023/03/12 08:05:55;;;;;;;;;;;3.90;99.90;;;;;;5042040;28;20011;-94
2023/03/12 08:08:25;;;;;;;;;;;3.90;99.90;;;;;;5058855;28;19959;-93
2023/03/12 08:10:51;;;;;;;;;;;3.90;99.90;;;;;;5025203;28;19908;-94
2023/03/12 08:13:27;;;;;;;;;;;3.90;99.90;;;;;;5040882;28;19905;-92
2023/03/12 08:16:00;;;;;;;;;;;4.00;99.90;;;;;;5041438;28;19931;-94
2023/03/12 08:18:29;;;;;;;;;;;4.10;99.90;;;;;;5042452;28;19916;-92
2023/03/12 08:20:59;;;;;;;;;;;4.10;99.90;;;;;;5041541;28;19904;-94
2023/03/12 08:23:25;;;;;;;;;;;4.10;99.90;;;;;;5025074;28;19912;-92
2023/03/12 08:25:51;;;;;;;;;;;4.10;99.90;;;;;;5025240;28;19924;-92
2023/03/12 08:28:20;;;;;;;;;;;4.10;99.90;;;;;;5041997;28;20398;-93
2023/03/12 08:30:46;;;;;;;;;;;4.20;99.90;;;;;;5041704;28;19912;-93
2023/03/12 08:33:14;;;;;;;;;;;4.20;99.90;;;;;;5041910;28;19958;-94
2023/03/12 08:35:45;;;;;;;;;;;4.30;99.90;;;;;;5042011;28;19912;-94
2023/03/12 08:38:28;;;;;;;;;;;;;;;;;;;;;
2023/03/12 08:41:00;;;;;;;;;;;4.30;99.90;;;;;;5059591;28;19911;-95
2023/03/12 08:43:36;;;;;;;;;;;4.40;99.90;;;;;;5041808;28;19916;-95
2023/03/12 08:46:16;;;;;;;;;;;4.40;99.90;;;;;;5041594;28;19912;-94
2023/03/12 08:48:45;;;;;;;;;;;4.40;99.90;;;;;;5059452;28;19908;-93
2023/03/12 08:51:11;;;;;;;;;;;4.40;99.90;;;;;;5041153;28;19955;-93
2023/03/12 08:53:41;;;;;;;;;;;4.50;99.90;;;;;;5042247;28;19905;-96
2023/03/12 08:56:07;;;;;;;;;;;4.50;99.90;;;;;;5041705;28;19905;-93
2023/03/12 08:58:35;;;;;;;;;;;4.60;99.90;;;;;;5052070;28;20050;-95
2023/03/12 09:01:01;;;;;;;;;;;4.60;99.90;;;;;;5022202;28;19917;-93
2023/03/12 09:03:30;;;;;;;;;;;4.70;99.90;;;;;;5019734;28;19913;-94
2023/03/12 09:09:03;;;;;;;;;;;4.70;99.90;;;;;;5019293;28;20389;-93
2023/03/12 09:11:48;;;;;;;;;;;4.70;99.90;;;;;;5052393;28;19905;-91
2023/03/12 09:14:16;;;;;;;;;;;4.80;99.90;;;;;;5034632;28;19918;-93
2023/03/12 09:16:44;;;;;;;;;;;4.80;99.90;;;;;;5068138;28;19905;-91
2023/03/12 09:19:12;;;;;;;;;;;4.90;99.90;;;;;;5032102;28;19916;-93
2023/03/12 09:21:45;;;;;;;;;;;4.90;99.90;;;;;;5005704;28;19936;-93
2023/03/12 09:24:35;;;;;;;;;;;4.90;99.90;;;;;;5021528;28;19913;-94
2023/03/12 09:27:03;;;;;;;;;;;4.90;99.90;;;;;;5024458;28;19909;-95
2023/03/12 09:29:38;;;;;;;;;;;5.00;99.90;;;;;;5054059;28;19951;-96
2023/03/12 09:32:19;;;;;;;;;;;;;;;;;;;;;
2023/03/12 09:34:45;;;;;;;;;;;5.10;99.90;;;;;;5040372;28;20436;-90
2023/03/12 09:37:10;;;;;;;;;;;5.10;99.90;;;;;;5021292;28;19933;-92
2023/03/12 09:39:36;;;;;;;;;;;5.20;99.90;;;;;;5037352;28;19912;-91
2023/03/12 09:42:05;;;;;;;;;;;5.20;99.90;;;;;;5037051;28;19912;-93
2023/03/12 09:44:35;;;;;;;;;;;5.20;99.90;;;;;;5038401;28;19913;-91
2023/03/12 09:47:11;;;;;;;;;;;5.30;99.90;;;;;;5037827;28;19913;-93
2023/03/12 09:49:55;;;;;;;;;;;5.30;99.90;;;;;;5020756;28;19909;-93
2023/03/12 09:52:25;;;;;;;;;;;5.40;99.90;;;;;;5047019;28;19905;-94
2023/03/12 09:55:05;;;;;;;;;;;5.40;99.90;;;;;;5040717;28;19913;-93
2023/03/12 09:57:39;;;;;;;;;;;5.50;99.90;;;;;;5075589;28;19916;-93
2023/03/12 10:00:11;;;;;;;;;;;5.60;99.90;;;;;;5059889;28;19928;-93
2023/03/12 10:03:03;;;;;;;;;;;5.60;99.90;;;;;;5077304;28;19931;-91
2023/03/12 10:05:56;;;;;;;;;;;;;;;;;;;;;
2023/03/12 10:08:28;;;;;;;;;;;5.70;99.90;;;;;;5021420;28;19999;-93
2023/03/12 10:11:20;;;;;;;;;;;5.80;99.90;;;;;;5000573;28;20356;-93
2023/03/12 10:14:02;;;;;;;;;;;5.80;99.90;;;;;;5023637;28;20407;-89
2023/03/12 10:16:42;;;;;;;;;;;5.80;99.90;;;;;;4999609;28;19964;-89
2023/03/12 10:19:24;;;;;;;;;;;5.90;99.90;;;;;;5019264;28;19920;-92
2023/03/12 10:22:00;;;;;;;;;;;5.90;99.90;;;;;;5022605;28;19917;-92
2023/03/12 10:24:44;;;;;;;;;;;6.00;99.90;;;;;;5040699;28;19916;-90
2023/03/12 10:27:16;;;;;;;;;;;6.10;99.90;;;;;;5039621;28;19928;-92
2023/03/12 10:29:43;;;;;;;;;;;6.10;99.90;;;;;;5024990;28;19959;-93
2023/03/12 10:32:23;;;;;;;;;;;6.20;99.90;;;;;;5020064;28;19913;-88
2023/03/12 10:34:58;;;;;;;;;;;6.30;99.90;;;;;;5038472;28;19963;-93
2023/03/12 10:37:43;;;;;;;;;;;6.40;99.90;;;;;;5023331;28;19960;-92
2023/03/12 10:40:17;;;;;;;;;;;6.40;99.90;;;;;;5022879;28;19909;-92
2023/03/12 10:42:48;;;;;;;;;;;6.50;99.90;;;;;;5022322;28;19935;-92
2023/03/12 10:45:22;;;;;;;;;;;6.50;99.90;;;;;;5022291;28;20003;-91
2023/03/12 10:47:58;;;;;;;;;;;6.60;99.90;;;;;;5020799;28;19905;-91
2023/03/12 10:50:24;;;;;;;;;;;6.70;99.90;;;;;;5021450;28;19905;-91
2023/03/12 10:52:52;;;;;;;;;;;6.80;99.90;;;;;;5020771;28;19919;-91
2023/03/12 10:55:20;;;;;;;;;;;6.80;99.90;;;;;;5020736;28;19955;-90
2023/03/12 10:57:51;;;;;;;;;;;6.90;99.90;;;;;;5019841;28;19905;-92
2023/03/12 11:00:22;;;;;;;;;;;7.00;99.90;;;;;;5030143;28;19921;-89
2023/03/12 11:02:54;;;;;;;;;;;7.00;99.90;;;;;;5038896;28;19908;-89
2023/03/12 11:05:22;;;;;;;;;;;7.10;99.90;;;;;;5040490;28;19913;-94
2023/03/12 11:07:48;;;;;;;;;;;7.20;99.90;;;;;;5025872;28;19905;-91
2023/03/12 11:10:16;;;;;;;;;;;7.30;99.90;;;;;;5036457;28;19958;-91
2023/03/12 11:12:50;;;;;;;;;;;7.40;99.90;;;;;;5053864;28;19905;-92
2023/03/12 11:15:36;;;;;;;;;;;7.40;99.90;;;;;;5052966;28;19927;-93
2023/03/12 11:18:40;;;;;;;;;;;7.50;99.90;;;;;;5052250;28;20273;-93
2023/03/12 11:21:11;;;;;;;;;;;7.60;99.90;;;;;;5047669;28;19905;-92
2023/03/12 11:23:38;;;;;;;;;;;7.70;99.90;;;;;;5052287;28;19913;-93
2023/03/12 11:26:10;;;;;;;;;;;7.80;99.90;;;;;;5053094;28;19912;-91
2023/03/12 11:28:38;;;;;;;;;;;7.90;99.90;;;;;;5055963;28;19999;-95
2023/03/12 11:31:13;;;;;;;;;;;7.90;99.90;;;;;;5024058;28;20250;-91
2023/03/12 11:33:38;;;;;;;;;;;8.00;99.90;;;;;;5056111;28;19909;-90
2023/03/12 11:36:06;;;;;;;;;;;8.10;99.90;;;;;;5056275;28;19931;-93
2023/03/12 11:38:39;;;;;;;;;;;8.20;99.90;;;;;;5055884;28;19905;-91
2023/03/12 11:41:08;;;;;;;;;;;8.20;99.90;;;;;;5057316;28;19905;-92
2023/03/12 11:43:55;;;;;;;;;;;8.30;99.90;;;;;;5056871;28;20373;-92
2023/03/12 11:46:26;;;;;;;;;;;8.30;99.90;;;;;;5056756;28;19920;-96
2023/03/12 11:49:00;;;;;;;;;;;8.40;99.90;;;;;;5057202;28;19905;-93
2023/03/12 11:51:40;;;;;;;;;;;8.50;99.90;;;;;;5056672;28;19905;-96
2023/03/12 11:54:09;;;;;;;;;;;8.60;99.90;;;;;;5056728;28;19912;-93
2023/03/12 11:56:57;;;;;;;;;;;8.70;99.90;;;;;;5056484;28;19967;-91
2023/03/12 11:59:42;;;;;;;;;;;8.70;99.90;;;;;;5053743;28;19917;-92
2023/03/12 12:02:41;;;;;;;;;;;8.80;99.90;;;;;;5016961;28;19917;-92
2023/03/12 12:05:25;;;;;;;;;;;8.80;99.90;;;;;;5058178;28;19909;-91
2023/03/12 12:08:05;;;;;;;;;;;8.90;99.90;;;;;;5056612;28;19959;-91
2023/03/12 12:10:54;;;;;;;;;;;8.90;99.90;;;;;;5025191;28;19905;-92
2023/03/12 12:13:41;;;;;;;;;;;9.00;99.90;;;;;;5007417;28;20284;-92
2023/03/12 12:16:33;;;;;;;;;;;9.10;99.90;;;;;;5061035;28;19905;-90
2023/03/12 12:19:19;;;;;;;;;;;9.10;99.90;;;;;;5041498;28;20312;-93
2023/03/12 12:21:44;;;;;;;;;;;9.10;99.90;;;;;;5023400;28;20262;-90
2023/03/12 12:24:17;;;;;;;;;;;9.20;99.90;;;;;;5040093;28;19912;-91
2023/03/12 12:27:02;;;;;;;;;;;9.30;99.90;;;;;;5022665;28;19905;-90
2023/03/12 12:29:43;;;;;;;;;;;9.30;99.90;;;;;;5039765;28;19905;-89
2023/03/12 12:32:24;;;;;;;;;;;9.30;99.90;;;;;;5039847;28;19963;-91
2023/03/12 12:35:03;;;;;;;;;;;9.40;99.90;;;;;;5042748;28;19916;-93
2023/03/12 12:37:31;;;;;;;;;;;9.40;99.90;;;;;;5023992;28;19913;-92
2023/03/12 12:40:17;;;;;;;;;;;9.50;99.90;;;;;;5022223;28;19996;-94
2023/03/12 12:42:53;;;;;;;;;;;9.50;99.90;;;;;;5027277;28;19913;-95
2023/03/12 12:45:28;;;;;;;;;;;9.50;99.90;;;;;;5026508;28;19916;-94
2023/03/12 12:48:09;;;;;;;;;;;9.50;99.90;;;;;;5026076;28;19893;-91
2023/03/12 12:50:38;;;;;;;;;;;9.60;99.90;;;;;;5058805;28;19909;-94
2023/03/12 12:53:24;;;;;;;;;;;9.60;99.90;;;;;;5043249;28;19916;-95
2023/03/12 12:56:07;;;;;;;;;;;9.60;99.90;;;;;;5025354;28;19909;-92
2023/03/12 12:58:48;;;;;;;;;;;9.60;99.90;;;;;;5026163;28;19912;-92
2023/03/12 13:01:16;;;;;;;;;;;9.60;99.90;;;;;;5058495;28;20387;-92
2023/03/12 13:03:45;;;;;;;;;;;9.70;99.90;;;;;;5041990;28;19921;-93
2023/03/12 13:06:10;;;;;;;;;;;9.70;99.90;;;;;;5061092;28;20352;-93
2023/03/12 13:08:39;;;;;;;;;;;9.70;99.90;;;;;;5073260;22;19969;-86
2023/03/12 13:11:21;;;;;;;;;;;9.70;99.90;;;;;;5074579;28;19904;-84
2023/03/12 13:14:02;;;;;;;;;;;9.80;99.90;;;;;;5073744;28;20002;-87
2023/03/12 13:16:32;;;;;;;;;;;9.80;99.90;;;;;;5073938;28;20242;-87
2023/03/12 13:19:00;;;;;;;;;;;9.80;99.90;;;;;;5057252;28;19961;-87
2023/03/12 13:21:37;;;;;;;;;;;9.80;99.90;;;;;;5073620;28;20430;-87
2023/03/12 13:24:03;;;;;;;;;;;9.90;99.90;;;;;;5073605;28;20349;-87
2023/03/12 13:26:47;;;;;;;;;;;9.90;99.90;;;;;;5073695;28;19926;-86
2023/03/12 13:29:19;;;;;;;;;;;9.90;99.90;;;;;;5054015;28;20340;-87
2023/03/12 13:31:45;;;;;;;;;;;9.90;99.90;;;;;;5070449;28;19904;-87
2023/03/12 13:34:17;;;;;;;;;;;10.00;99.90;;;;;;5073627;28;20265;-87
2023/03/12 13:36:43;;;;;;;;;;;10.00;99.90;;;;;;5069828;28;19905;-86
2023/03/12 13:39:15;;;;;;;;;;;10.00;99.90;;;;;;5073336;28;19966;-87
2023/03/12 13:41:43;;;;;;;;;;;10.00;99.90;;;;;;5073728;28;19927;-87
2023/03/12 13:44:21;;;;;;;;;;;10.10;99.90;;;;;;5058222;28;19954;-94
2023/03/12 13:46:48;;;;;;;;;;;10.10;99.90;;;;;;5075506;28;19905;-93
2023/03/12 13:49:15;;;;;;;;;;;10.10;99.90;;;;;;5065724;28;19904;-94
2023/03/12 13:51:55;;;;;;;;;;;10.20;99.90;;;;;;5065069;28;19904;-94
2023/03/12 13:54:22;;;;;;;;;;;10.20;99.90;;;;;;5074888;28;19905;-94
2023/03/12 13:57:14;;;;;;;;;;;10.20;99.90;;;;;;5074808;28;20046;-93
2023/03/12 13:59:44;;;;;;;;;;;10.20;99.90;;;;;;5068856;28;19911;-87
2023/03/12 14:02:20;;;;;;;;;;;10.30;99.90;;;;;;5072812;28;20254;-87
2023/03/12 14:04:46;;;;;;;;;;;10.30;99.90;;;;;;5074503;28;19951;-87
2023/03/12 14:07:21;;;;;;;;;;;10.40;99.90;;;;;;5056470;28;19908;-94
2023/03/12 14:10:03;;;;;;;;;;;10.40;99.90;;;;;;5073823;28;19999;-88
2023/03/12 14:12:39;;;;;;;;;;;10.50;99.90;;;;;;5074480;28;20380;-89
2023/03/12 14:15:08;;;;;;;;;;;10.50;99.90;;;;;;5074016;28;19916;-91
2023/03/12 14:17:35;;;;;;;;;;;10.60;99.90;;;;;;5070771;28;19904;-93
2023/03/12 14:20:04;;;;;;;;;;;10.60;99.90;;;;;;5074589;28;19911;-94
2023/03/12 14:22:34;;;;;;;;;;;10.70;99.90;;;;;;5074009;28;20353;-93
2023/03/12 14:25:05;;;;;;;;;;;10.70;99.90;;;;;;5074278;28;19915;-94
2023/03/12 14:27:32;;;;;;;;;;;10.80;99.90;;;;;;5074123;28;19923;-95
2023/03/12 14:30:18;;;;;;;;;;;10.80;99.90;;;;;;5074634;28;19904;-94
2023/03/12 14:32:46;;;;;;;;;;;10.80;99.90;;;;;;5073100;28;20367;-86
2023/03/12 14:35:28;;;;;;;;;;;10.80;99.90;;;;;;5073686;28;19947;-88
2023/03/12 14:37:53;;;;;;;;;;;10.80;99.90;;;;;;5073374;28;19999;-88
2023/03/12 14:40:22;;;;;;;;;;;10.90;99.90;;;;;;5073819;28;19962;-87
2023/03/12 14:42:49;;;;;;;;;;;10.90;99.90;;;;;;5073809;28;19912;-86
2023/03/12 14:45:22;;;;;;;;;;;10.90;99.90;;;;;;5074033;28;20428;-87
2023/03/12 14:47:51;;;;;;;;;;;10.90;99.90;;;;;;5056050;28;20372;-87
2023/03/12 14:50:19;;;;;;;;;;;10.90;99.90;;;;;;5057725;28;19905;-94
2023/03/12 14:52:44;;;;;;;;;;;10.90;99.90;;;;;;5077384;28;19908;-93
2023/03/12 14:55:12;;;;;;;;;;;10.90;99.90;;;;;;5073772;28;20413;-94
2023/03/12 14:57:37;;;;;;;;;;;10.90;99.90;;;;;;5073701;28;19958;-94